Strait of Georgia - north of Nanaimo: Past 24 Hour Conditions

 

South Moresby - 46147

09:00 PM PDT 29 March 2015Buoy position: 51.83N 131.23W
Disclaimer

This table is a summary of hourly weather conditions for the past 24 hours.
Please note that these observations might not always be representative of weather conditions over their associated marine area.

Date / Time
(PDT)
Wind(knots) Wave height(m) Wave period(s) Pressure(kPa) Air tempC) Water tempC)
29 March 2015
21:00 SE 12 gust 18 3.5 12.0 101.4 10 10
20:00 SE 12 gust 16 3.5 12.0 101.4 10 10
19:00 SSE 10 gust 12 3.3 12.0 101.5 10 10
18:00 S 8 gust 10 3.4 12.0 101.6 10 10
17:00 S 10 gust 12 3.3 14.0 101.7 10 10
16:00 SSW 10 gust 12 3.4 14.0 101.7 10 10
15:00 SW 10 gust 14 3.4 11.0 101.7 10 10
14:00 SW 8 gust 12 3.7 14.0 101.7 10 10
13:00 WSW 12 gust 16 3.5 12.0 101.7 10 10
12:00 WSW 12 gust 16 3.2 11.0 101.6 10 10
11:00 WSW 14 gust 16 3.6 11.0 101.5 10 10
10:00 WSW 16 gust 19 3.7 11.0 101.4 10 10
9:00 WSW 14 gust 18 3.3 10.0 101.4 10 9
8:00 WSW 16 gust 19 3.2 11.0 101.3 10 9
7:00 SW 18 gust 23 3.2 10.0 101.2 10 9
6:00 SW 19 gust 23 3.3 11.0 101.1 10 9
5:00 SSW 18 gust 23 3.0 11.0 101.0 9 9
4:00 SW 18 gust 19 3.3 10.0 101.0 10 10
3:00 SSW 14 gust 18 3.1 11.0 101.0 10 10
2:00 S 14 gust 18 3.2 11.0 101.0 9 10
1:00 S 14 gust 16 3.0 11.0 101.0 9 10
0:00 S 16 gust 19 3.4 11.0 101.0 9 10
28 March 2015
23:00 S 12 gust 14 3.3 9.0 101.0 10 10
22:00 SSW 12 gust 16 3.4 11.0 101.0 10 10
21:00 SSW 16 gust 19 3.4 12.0 101.0 10 10

Zoom-in to make a selection

Map of Pacific - South Coast marine weather areas Tsawwassen Ferry Terminal South Nomad - 46036 Sentry Shoal - 46131 South Brooks - 46132 Halibut Bank - 46146 South Moresby - 46147 South Hecate Strait - 46185 West Sea Otter - 46204 La Perouse Bank - 46206 East Dellwood - 46207 Discovery Island Esquimalt Harbour Kelp Reefs Malahat Race Rocks Lightstation Saturna Island Sheringham Point University of Victoria Victoria Gonzales Victoria Int'l Airport Ballenas Islands Campbell River Airport Comox Airport Entrance Island Fanny Island Nanaimo Airport Port Hardy Airport Sisters Islets Estevan Point Sartine Island Solander Island Tofino Airport Grief Point Powell River Airport Sechelt Cape St.James Bella Bella Airport Bella Coola Airport Cathedral Point Herbert Island Point Atkinson Sand Heads Lightstation Vancouver Harbour Vancouver Int'l Airport West Vancouver Port Alberni Howe Sound - Pam Rocks Squamish Airport
Legend:
buoy Buoy
land station Land Station

Pacific - South Coast Area

Another Region

What we are doing

Date modified: